createdAt,value
2022-12-20T00:01:35.579Z,3.35
2022-12-20T00:04:07.904Z,3.25
2022-12-20T00:06:36.533Z,3.92
2022-12-20T00:09:06.753Z,4.15
2022-12-20T00:11:34.695Z,4.18
2022-12-20T00:14:02.332Z,4.30
2022-12-20T00:16:30.067Z,3.80
2022-12-20T00:19:00.221Z,3.42
2022-12-20T00:21:28.799Z,3.42
2022-12-20T00:23:57.208Z,4.38
2022-12-20T00:26:27.122Z,3.85
2022-12-20T00:28:54.735Z,3.83
2022-12-20T00:31:23.764Z,3.22
2022-12-20T00:33:53.266Z,4.35
2022-12-20T00:36:22.121Z,3.50
2022-12-20T00:38:52.113Z,3.17
2022-12-20T00:41:22.948Z,2.90
2022-12-20T00:43:52.435Z,2.70
2022-12-20T00:46:23.361Z,2.40
2022-12-20T00:51:21.889Z,2.63
2022-12-20T00:53:49.583Z,2.40
2022-12-20T00:56:18.548Z,2.67
2022-12-20T00:58:46.425Z,2.83
2022-12-20T01:01:23.373Z,2.03
2022-12-20T01:03:52.526Z,2.60
2022-12-20T01:06:21.466Z,2.58
2022-12-20T01:08:48.946Z,2.53
2022-12-20T01:11:22.426Z,2.83
2022-12-20T01:13:52.704Z,2.50
2022-12-20T01:16:30.131Z,2.73
2022-12-20T01:18:58.039Z,2.90
2022-12-20T01:21:27.442Z,2.92
2022-12-20T01:23:55.449Z,3.55
2022-12-20T01:26:25.373Z,2.80
2022-12-20T01:28:55.785Z,3.00
2022-12-20T01:31:24.472Z,3.38
2022-12-20T01:33:52.872Z,3.38
2022-12-20T01:36:26.450Z,3.28
2022-12-20T01:39:08.339Z,4.20
2022-12-20T01:41:37.009Z,2.95
2022-12-20T01:44:06.616Z,3.05
2022-12-20T01:46:36.424Z,3.92
2022-12-20T01:49:07.098Z,3.95
2022-12-20T01:51:40.147Z,3.38
2022-12-20T01:54:13.612Z,3.25
2022-12-20T01:56:45.997Z,4.05
2022-12-20T01:59:14.542Z,3.38
2022-12-20T02:01:44.008Z,3.90
2022-12-20T02:04:12.462Z,3.58
2022-12-20T02:06:40.009Z,3.92
2022-12-20T02:09:09.025Z,4.03
2022-12-20T02:12:09.051Z,3.95
2022-12-20T02:17:44.224Z,3.78
2022-12-20T02:20:55.444Z,3.92
2022-12-20T02:26:29.973Z,3.20
2022-12-20T02:29:19.676Z,3.28
2022-12-20T02:32:28.364Z,3.38
2022-12-20T02:34:57.388Z,2.92
2022-12-20T02:37:25.710Z,2.95
2022-12-20T02:39:54.013Z,2.80
2022-12-20T02:42:25.696Z,2.83
2022-12-20T02:45:17.127Z,3.50
2022-12-20T02:47:55.747Z,2.90
2022-12-20T02:50:52.724Z,2.85
2022-12-20T02:53:22.447Z,2.65
2022-12-20T02:56:14.089Z,2.58
2022-12-20T02:58:59.715Z,2.53
2022-12-20T03:01:36.217Z,3.17
2022-12-20T03:04:04.973Z,3.35
2022-12-20T03:06:32.531Z,3.47
2022-12-20T03:09:00.111Z,4.05
2022-12-20T03:11:30.541Z,3.75
2022-12-20T03:13:58.162Z,3.90
2022-12-20T03:16:25.703Z,4.15
2022-12-20T03:18:53.717Z,4.07
2022-12-20T03:21:21.153Z,3.60
2022-12-20T03:23:48.588Z,4.40
2022-12-20T03:26:16.075Z,4.28
2022-12-20T03:28:48.370Z,4.13
2022-12-20T03:31:20.390Z,3.92
2022-12-20T03:33:52.612Z,4.38
2022-12-20T03:36:23.635Z,4.10
2022-12-20T03:38:56.063Z,3.70
2022-12-20T03:41:26.411Z,4.38
2022-12-20T03:43:54.361Z,4.10
2022-12-20T03:46:23.418Z,3.10
2022-12-20T03:48:51.359Z,4.10
2022-12-20T03:51:19.411Z,4.40
2022-12-20T03:53:46.898Z,4.13
2022-12-20T03:56:15.558Z,5.10
2022-12-20T03:58:44.250Z,4.70
2022-12-20T04:01:20.162Z,4.68
2022-12-20T04:03:48.629Z,4.80
2022-12-20T04:06:16.399Z,3.90
2022-12-20T04:08:44.172Z,5.03
2022-12-20T04:11:17.067Z,4.88
2022-12-20T04:14:05.165Z,4.25
2022-12-20T04:16:34.391Z,4.30
2022-12-20T04:19:02.815Z,4.65
2022-12-20T04:21:36.427Z,4.60
2022-12-20T04:24:06.442Z,4.70
2022-12-20T04:26:46.838Z,5.35
2022-12-20T04:29:16.224Z,5.18
2022-12-20T04:31:45.005Z,5.57
2022-12-20T04:34:13.142Z,4.53
2022-12-20T04:36:40.890Z,5.80
2022-12-20T04:39:14.694Z,4.20
2022-12-20T04:41:59.624Z,4.95
2022-12-20T04:44:27.169Z,4.78
2022-12-20T04:46:54.621Z,4.32
2022-12-20T04:49:22.226Z,4.90
2022-12-20T04:51:49.909Z,4.63
2022-12-20T04:54:19.422Z,4.75
2022-12-20T04:56:57.490Z,5.03
2022-12-20T04:59:25.585Z,4.93
2022-12-20T05:01:55.537Z,4.90
2022-12-20T05:04:42.483Z,5.95
2022-12-20T05:07:10.240Z,6.30
2022-12-20T05:09:39.884Z,6.20
2022-12-20T05:12:07.520Z,5.60
2022-12-20T05:14:35.187Z,5.60
2022-12-20T05:17:03.145Z,5.55
2022-12-20T05:19:31.024Z,6.07
2022-12-20T05:22:17.219Z,5.68
2022-12-20T05:25:18.275Z,5.45
2022-12-20T05:27:46.110Z,5.88
2022-12-20T05:30:13.833Z,6.40
2022-12-20T05:32:41.808Z,4.93
2022-12-20T05:35:09.937Z,5.25
2022-12-20T05:37:38.527Z,5.22
2022-12-20T05:40:16.263Z,5.10
2022-12-20T05:42:44.692Z,5.57
2022-12-20T05:45:12.361Z,5.45
2022-12-20T05:47:49.488Z,4.90
2022-12-20T05:50:19.145Z,5.40
2022-12-20T05:53:11.266Z,5.10
2022-12-20T05:55:47.335Z,4.43
2022-12-20T06:00:52.909Z,3.92
2022-12-20T06:03:22.855Z,5.10
2022-12-20T06:05:51.944Z,3.50
2022-12-20T06:08:27.219Z,4.50
2022-12-20T06:10:56.670Z,3.80
2022-12-20T06:13:24.984Z,3.90
2022-12-20T06:15:55.165Z,4.50
2022-12-20T06:18:23.345Z,5.53
2022-12-20T06:20:55.499Z,4.20
2022-12-20T06:23:24.685Z,4.75
2022-12-20T06:26:09.540Z,4.20
2022-12-20T06:28:46.129Z,4.15
2022-12-20T06:31:14.824Z,4.30
2022-12-20T06:33:45.316Z,3.53
2022-12-20T06:36:16.008Z,4.70
2022-12-20T06:38:44.158Z,4.53
2022-12-20T06:41:11.695Z,4.30
2022-12-20T06:43:40.250Z,4.75
2022-12-20T06:46:09.013Z,4.35
2022-12-20T06:48:37.669Z,4.70
2022-12-20T06:51:07.315Z,3.88
2022-12-20T06:53:35.318Z,5.18
2022-12-20T06:56:03.410Z,3.78
2022-12-20T06:58:32.566Z,3.90
2022-12-20T07:01:00.701Z,4.68
2022-12-20T07:03:28.662Z,3.95
2022-12-20T07:05:56.586Z,4.57
2022-12-20T07:08:25.007Z,3.20
2022-12-20T07:10:52.921Z,4.38
2022-12-20T07:13:20.833Z,4.13
2022-12-20T07:15:48.568Z,3.55
2022-12-20T07:18:16.091Z,3.50
2022-12-20T07:20:43.538Z,4.18
2022-12-20T07:23:11.079Z,4.38
2022-12-20T07:25:38.678Z,3.97
2022-12-20T07:28:06.206Z,3.80
2022-12-20T07:30:33.610Z,3.63
2022-12-20T07:33:01.171Z,1.90
2022-12-20T07:35:28.817Z,1.17
2022-12-20T07:37:56.282Z,1.23
2022-12-20T07:40:24.293Z,0.60
2022-12-20T07:42:52.243Z,0.50
2022-12-20T07:45:19.921Z,0.22
2022-12-20T07:47:47.398Z,0.32
2022-12-20T07:50:14.920Z,0.47
2022-12-20T07:52:44.736Z,0.20
2022-12-20T07:55:13.472Z,0.38
2022-12-20T07:57:49.085Z,0.50
2022-12-20T08:00:18.752Z,0.30
2022-12-20T08:02:56.720Z,0.25
2022-12-20T08:05:24.582Z,0.30
2022-12-20T08:07:58.718Z,0.40
2022-12-20T08:10:28.525Z,0.30
2022-12-20T08:12:57.882Z,0.40
2022-12-20T08:15:25.957Z,0.52
2022-12-20T08:17:53.520Z,0.40
2022-12-20T08:20:21.111Z,0.40
2022-12-20T08:22:48.752Z,0.40
2022-12-20T08:25:16.628Z,0.60
2022-12-20T08:27:44.723Z,0.60
2022-12-20T08:30:12.575Z,0.40
2022-12-20T08:32:40.059Z,0.40
2022-12-20T08:35:08.327Z,0.43
2022-12-20T08:37:35.819Z,0.40
2022-12-20T08:40:03.555Z,0.55
2022-12-20T08:42:32.132Z,0.40
2022-12-20T08:44:59.624Z,0.60
2022-12-20T08:47:29.131Z,0.45
2022-12-20T08:49:56.764Z,0.45
2022-12-20T08:52:24.273Z,0.40
2022-12-20T08:54:51.746Z,0.38
2022-12-20T08:57:19.269Z,0.40
2022-12-20T08:59:47.083Z,0.75
2022-12-20T09:02:14.652Z,0.60
2022-12-20T09:04:42.421Z,0.50
2022-12-20T09:07:10.584Z,0.80
2022-12-20T09:09:38.134Z,0.70
2022-12-20T09:12:05.704Z,0.60
2022-12-20T09:14:33.405Z,1.10
2022-12-20T09:17:00.878Z,0.80
2022-12-20T09:19:28.751Z,0.82
2022-12-20T09:21:56.609Z,0.93
2022-12-20T09:24:24.092Z,1.05
2022-12-20T09:26:52.069Z,1.90
2022-12-20T09:29:26.997Z,0.80
2022-12-20T09:31:54.713Z,1.23
2022-12-20T09:34:22.202Z,1.45
2022-12-20T09:36:49.875Z,1.15
2022-12-20T09:39:17.489Z,1.13
2022-12-20T09:41:45.211Z,1.60
2022-12-20T09:44:15.790Z,1.45
2022-12-20T09:46:44.557Z,1.02
2022-12-20T09:49:17.191Z,1.25
2022-12-20T09:52:03.345Z,1.10
2022-12-20T09:54:40.129Z,1.10
2022-12-20T09:57:07.571Z,1.60
2022-12-20T09:59:41.311Z,1.52
2022-12-20T10:02:44.488Z,1.00
2022-12-20T10:05:01.229Z,1.65
2022-12-20T10:07:42.013Z,1.30
2022-12-20T10:10:18.512Z,0.90
2022-12-20T10:13:19.017Z,1.13
2022-12-20T10:16:15.386Z,1.30
2022-12-20T10:18:56.642Z,1.15
2022-12-20T10:21:36.052Z,1.55
2022-12-20T10:24:12.166Z,1.10
2022-12-20T10:26:40.197Z,1.55
2022-12-20T10:29:09.040Z,1.52
2022-12-20T10:31:36.748Z,1.52
2022-12-20T10:34:04.347Z,1.63
2022-12-20T10:36:35.621Z,1.52
2022-12-20T10:39:09.551Z,1.65
2022-12-20T10:41:40.236Z,1.65
2022-12-20T10:44:19.423Z,1.45
2022-12-20T10:46:54.043Z,2.00
2022-12-20T10:49:37.148Z,1.80
2022-12-20T10:52:07.777Z,2.05
2022-12-20T10:54:39.124Z,1.90
2022-12-20T10:57:28.617Z,1.65
2022-12-20T10:59:58.880Z,1.75
2022-12-20T11:02:41.656Z,1.90
2022-12-20T11:05:15.460Z,1.80
2022-12-20T11:10:48.649Z,1.92
2022-12-20T11:13:23.105Z,2.83
2022-12-20T11:15:57.281Z,1.70
2022-12-20T11:18:49.491Z,2.35
2022-12-20T11:21:33.255Z,1.80
2022-12-20T11:24:45.559Z,2.22
2022-12-20T11:27:42.852Z,2.10
2022-12-20T11:30:21.544Z,2.50
2022-12-20T11:33:07.811Z,2.10
2022-12-20T11:35:42.035Z,1.95
2022-12-20T11:38:39.921Z,2.17
2022-12-20T11:41:19.999Z,3.30
2022-12-20T11:44:26.549Z,2.65
2022-12-20T11:46:57.689Z,2.50
2022-12-20T11:49:28.470Z,2.60
2022-12-20T11:52:19.132Z,2.63
2022-12-20T11:54:52.919Z,2.45
2022-12-20T11:57:27.801Z,2.30
2022-12-20T12:00:00.376Z,2.65
2022-12-20T12:02:36.406Z,2.53
2022-12-20T12:05:31.790Z,2.40
2022-12-20T12:08:05.726Z,2.72
2022-12-20T12:10:39.039Z,2.47
2022-12-20T12:13:17.315Z,2.35
2022-12-20T12:16:13.236Z,3.65
2022-12-20T12:18:42.156Z,2.97
2022-12-20T12:21:33.179Z,2.83
2022-12-20T12:26:34.820Z,3.50
2022-12-20T12:29:12.542Z,2.97
2022-12-20T12:31:55.316Z,2.88
2022-12-20T12:34:23.060Z,4.38
2022-12-20T12:36:59.684Z,3.15
2022-12-20T12:39:27.441Z,2.92
2022-12-20T12:42:22.926Z,4.50
2022-12-20T12:45:08.345Z,3.83
2022-12-20T12:48:01.164Z,3.90
2022-12-20T12:50:37.327Z,2.17
2022-12-20T12:53:08.964Z,3.25
2022-12-20T12:56:12.678Z,3.60
2022-12-20T12:59:09.552Z,3.25
2022-12-20T13:01:54.112Z,3.08
2022-12-20T13:04:27.383Z,3.00
2022-12-20T13:07:23.377Z,3.78
2022-12-20T13:09:51.141Z,3.25
2022-12-20T13:12:36.949Z,3.97
2022-12-20T13:15:20.361Z,2.90
2022-12-20T13:18:00.808Z,3.50
2022-12-20T13:20:36.090Z,3.25
2022-12-20T13:23:12.674Z,2.95
2022-12-20T13:25:54.473Z,2.90
2022-12-20T13:28:22.713Z,3.40
2022-12-20T13:31:03.684Z,3.78
2022-12-20T13:33:49.355Z,2.97
2022-12-20T13:36:17.871Z,3.55
2022-12-20T13:38:50.505Z,2.97
2022-12-20T13:41:35.365Z,3.15
2022-12-20T13:44:18.078Z,3.33
2022-12-20T13:47:03.517Z,3.30
2022-12-20T13:49:40.295Z,3.42
2022-12-20T13:52:19.653Z,3.88
2022-12-20T13:54:50.140Z,3.20
2022-12-20T13:57:24.472Z,3.40
2022-12-20T13:59:59.977Z,3.50
2022-12-20T14:02:37.024Z,2.70
2022-12-20T14:05:17.096Z,3.53
2022-12-20T14:07:57.003Z,3.25
2022-12-20T14:10:26.422Z,3.78
2022-12-20T14:12:55.405Z,3.95
2022-12-20T14:15:33.419Z,3.63
2022-12-20T14:18:20.360Z,3.70
2022-12-20T14:20:51.388Z,4.63
2022-12-20T14:23:24.818Z,4.93
2022-12-20T14:25:56.952Z,4.40
2022-12-20T14:28:44.467Z,3.97
2022-12-20T14:31:36.935Z,4.13
2022-12-20T14:34:16.949Z,4.03
2022-12-20T14:36:47.423Z,4.40
2022-12-20T14:39:33.603Z,3.85
2022-12-20T14:42:03.617Z,4.32
2022-12-20T14:44:32.564Z,4.27
2022-12-20T14:47:24.993Z,3.67
2022-12-20T14:49:58.885Z,4.32
2022-12-20T14:52:26.479Z,5.28
2022-12-20T14:55:12.732Z,4.80
2022-12-20T14:57:44.882Z,4.60
2022-12-20T15:00:23.639Z,4.72
2022-12-20T15:03:02.667Z,4.38
2022-12-20T15:05:38.474Z,4.05
2022-12-20T15:08:29.684Z,4.32
2022-12-20T15:11:11.161Z,4.97
2022-12-20T15:13:42.475Z,4.93
2022-12-20T15:16:22.723Z,3.95
2022-12-20T15:18:55.053Z,4.47
2022-12-20T15:21:35.612Z,4.63
2022-12-20T15:24:09.415Z,4.10
2022-12-20T15:26:37.931Z,5.20
2022-12-20T15:29:06.578Z,5.32
2022-12-20T15:31:36.322Z,5.30
2022-12-20T15:34:12.059Z,5.32
2022-12-20T15:36:39.726Z,4.90
2022-12-20T15:39:15.274Z,5.15
2022-12-20T15:41:48.793Z,5.13
2022-12-20T15:44:25.072Z,4.63
2022-12-20T15:46:53.443Z,4.20
2022-12-20T15:49:27.638Z,4.80
2022-12-20T15:51:56.158Z,4.97
2022-12-20T15:54:27.556Z,5.03
2022-12-20T15:56:57.381Z,5.07
2022-12-20T15:59:58.486Z,4.43
2022-12-20T16:02:28.406Z,4.78
2022-12-20T16:04:59.055Z,4.65
2022-12-20T16:07:26.895Z,4.90
2022-12-20T16:09:54.430Z,4.90
2022-12-20T16:12:27.136Z,4.55
2022-12-20T16:14:55.463Z,5.07
2022-12-20T16:17:24.044Z,4.38
2022-12-20T16:19:52.115Z,5.00
2022-12-20T16:22:26.339Z,5.13
2022-12-20T16:24:54.271Z,4.43
2022-12-20T16:27:21.895Z,4.90
2022-12-20T16:29:50.117Z,4.75
2022-12-20T16:32:19.932Z,5.90
2022-12-20T16:34:49.947Z,5.18
2022-12-20T16:37:17.598Z,5.47
2022-12-20T16:39:45.306Z,6.05
2022-12-20T16:42:15.696Z,4.63
2022-12-20T16:44:45.716Z,5.43
2022-12-20T16:49:51.564Z,5.75
2022-12-20T16:52:22.142Z,5.60
2022-12-20T16:54:50.522Z,7.25
2022-12-20T16:57:18.221Z,7.88
2022-12-20T16:59:45.681Z,8.40
2022-12-20T17:02:21.365Z,6.63
2022-12-20T17:04:49.075Z,6.70
2022-12-20T17:07:16.989Z,6.28
2022-12-20T17:09:44.531Z,7.20
2022-12-20T17:12:17.285Z,6.43
2022-12-20T17:14:45.102Z,7.60
2022-12-20T17:17:13.365Z,7.35
2022-12-20T17:19:41.496Z,7.10
2022-12-20T17:22:24.373Z,6.80
2022-12-20T17:24:52.182Z,6.82
2022-12-20T17:27:20.215Z,7.65
2022-12-20T17:29:47.717Z,8.68
2022-12-20T17:32:24.167Z,8.23
2022-12-20T17:34:51.953Z,8.07
2022-12-20T17:37:20.858Z,7.25
2022-12-20T17:39:48.547Z,7.45
2022-12-20T17:42:17.081Z,8.05
2022-12-20T17:44:46.284Z,8.38
2022-12-20T17:47:14.269Z,8.07
2022-12-20T17:49:41.688Z,7.07
2022-12-20T17:52:16.567Z,8.48
2022-12-20T17:54:43.996Z,7.38
2022-12-20T17:57:14.852Z,8.10
2022-12-20T17:59:42.660Z,7.18
2022-12-20T18:02:24.636Z,7.82
2022-12-20T18:04:52.663Z,6.32
2022-12-20T18:07:20.529Z,7.72
2022-12-20T18:09:48.700Z,8.23
2022-12-20T18:12:17.625Z,8.75
2022-12-20T18:14:45.242Z,7.15
2022-12-20T18:17:13.072Z,7.65
2022-12-20T18:19:40.974Z,8.93
2022-12-20T18:22:08.412Z,7.68
2022-12-20T18:24:35.978Z,7.50
2022-12-20T18:27:03.551Z,8.82
2022-12-20T18:29:31.359Z,8.85
2022-12-20T18:31:58.919Z,7.05
2022-12-20T18:34:26.889Z,7.93
2022-12-20T18:36:54.526Z,8.13
2022-12-20T18:39:22.382Z,9.07
2022-12-20T18:41:50.468Z,8.27
2022-12-20T18:44:18.172Z,9.70
2022-12-20T18:46:45.983Z,10.88
2022-12-20T18:49:13.791Z,8.80
2022-12-20T18:51:41.659Z,8.95
2022-12-20T18:54:12.178Z,8.88
2022-12-20T18:56:40.662Z,7.93
2022-12-20T18:59:11.831Z,7.32
2022-12-20T19:01:41.817Z,7.13
2022-12-20T19:04:10.551Z,8.80
2022-12-20T19:06:38.779Z,7.82
2022-12-20T19:09:10.724Z,8.18
2022-12-20T19:11:38.753Z,8.00
2022-12-20T19:14:07.786Z,8.27
2022-12-20T19:16:36.456Z,8.18
2022-12-20T19:19:04.274Z,7.55
2022-12-20T19:21:34.024Z,7.82
2022-12-20T19:24:05.290Z,8.73
2022-12-20T19:26:34.156Z,8.88
2022-12-20T19:29:03.264Z,9.10
2022-12-20T19:31:32.953Z,8.50
2022-12-20T19:34:04.246Z,9.43
2022-12-20T19:36:36.771Z,9.20
2022-12-20T19:39:07.790Z,8.02
2022-12-20T19:41:36.224Z,9.55
2022-12-20T19:44:04.692Z,9.05
2022-12-20T19:46:32.370Z,9.27
2022-12-20T19:49:00.420Z,9.27
2022-12-20T19:51:29.084Z,10.15
2022-12-20T19:53:58.680Z,9.35
2022-12-20T19:56:29.188Z,8.88
2022-12-20T19:58:57.249Z,7.97
2022-12-20T20:01:27.452Z,9.57
2022-12-20T20:03:57.612Z,8.65
2022-12-20T20:06:26.495Z,8.15
2022-12-20T20:08:57.587Z,8.00
2022-12-20T20:11:26.650Z,7.78
2022-12-20T20:13:54.414Z,8.55
2022-12-20T20:16:23.085Z,8.18
2022-12-20T20:18:51.523Z,9.00
2022-12-20T20:21:22.600Z,8.55
2022-12-20T20:23:52.797Z,8.65
2022-12-20T20:26:23.765Z,8.25
2022-12-20T20:28:52.171Z,8.77
2022-12-20T20:31:20.874Z,8.68
2022-12-20T20:33:49.438Z,8.70
2022-12-20T20:36:19.518Z,9.82
2022-12-20T20:38:48.334Z,9.43
2022-12-20T20:41:16.512Z,8.10
2022-12-20T20:43:44.708Z,9.45
2022-12-20T20:46:14.160Z,8.23
2022-12-20T20:48:42.087Z,7.65
2022-12-20T20:51:10.003Z,8.85
2022-12-20T20:53:37.630Z,7.28
2022-12-20T20:56:06.792Z,9.93
2022-12-20T20:58:34.797Z,8.68
2022-12-20T21:01:04.758Z,8.00
2022-12-20T21:03:32.996Z,7.90
2022-12-20T21:06:37.221Z,8.38
2022-12-20T21:08:48.459Z,8.13
2022-12-20T21:11:16.137Z,10.60
2022-12-20T21:13:43.699Z,7.72
2022-12-20T21:16:13.687Z,8.40
2022-12-20T21:18:41.229Z,7.13
2022-12-20T21:21:10.644Z,7.95
2022-12-20T21:23:39.499Z,7.25
2022-12-20T21:26:07.759Z,6.68
2022-12-20T21:28:35.953Z,8.00
2022-12-20T21:31:06.460Z,6.93
2022-12-20T21:33:33.991Z,8.25
2022-12-20T21:36:03.307Z,7.63
2022-12-20T21:38:30.810Z,6.25
2022-12-20T21:41:06.272Z,7.53
2022-12-20T21:43:34.332Z,7.85
2022-12-20T21:46:01.862Z,7.32
2022-12-20T21:48:30.241Z,7.32
2022-12-20T21:51:05.003Z,8.40
2022-12-20T21:53:33.498Z,7.30
2022-12-20T21:56:01.906Z,7.35
2022-12-20T21:58:31.010Z,7.80
2022-12-20T22:00:58.903Z,8.50
2022-12-20T22:03:26.732Z,7.63
2022-12-20T22:05:58.096Z,6.85
2022-12-20T22:08:27.468Z,7.15
2022-12-20T22:11:09.838Z,7.45
2022-12-20T22:13:41.589Z,6.47
2022-12-20T22:16:12.727Z,7.30
2022-12-20T22:18:41.578Z,8.07
2022-12-20T22:21:11.485Z,7.97
2022-12-20T22:23:40.268Z,6.63
2022-12-20T22:26:10.789Z,6.55
2022-12-20T22:28:38.986Z,7.80
2022-12-20T22:31:08.718Z,7.43
2022-12-20T22:33:37.164Z,6.85
2022-12-20T22:36:06.093Z,6.40
2022-12-20T22:38:34.908Z,6.82
2022-12-20T22:41:11.134Z,7.30
2022-12-20T22:43:39.284Z,7.75
2022-12-20T22:48:52.543Z,6.43
2022-12-20T22:51:22.298Z,7.00
2022-12-20T22:53:49.945Z,6.68
2022-12-20T22:56:19.491Z,5.55
2022-12-20T22:58:47.254Z,6.78
2022-12-20T23:01:17.513Z,6.60
2022-12-20T23:03:45.943Z,6.28
2022-12-20T23:06:16.636Z,5.88
2022-12-20T23:08:44.538Z,6.20
2022-12-20T23:11:34.189Z,6.35
2022-12-20T23:14:20.439Z,6.38
2022-12-20T23:16:48.050Z,6.28
2022-12-20T23:19:15.539Z,6.45
2022-12-20T23:22:01.807Z,5.88
2022-12-20T23:24:29.367Z,7.15
2022-12-20T23:26:57.693Z,6.13
2022-12-20T23:29:25.119Z,7.60
2022-12-20T23:31:52.866Z,5.65
2022-12-20T23:34:20.718Z,5.15
2022-12-20T23:36:48.297Z,6.28
2022-12-20T23:39:15.739Z,6.15
2022-12-20T23:41:43.161Z,6.30
2022-12-20T23:44:10.801Z,5.95
2022-12-20T23:46:38.458Z,5.95
2022-12-20T23:49:06.059Z,5.63
2022-12-20T23:51:34.529Z,5.57
2022-12-20T23:54:02.054Z,5.40
2022-12-20T23:56:29.464Z,4.93
2022-12-20T23:58:57.728Z,5.55
